Guaranta do Norte, Brazil
Current Conditions -  °F | °C
As of 12:00 PM on Wednesday 22 Oct 2014 (Local Time) from SBIH Reporting Station
Scattered Clouds Scattered Clouds  
Wind Chill: 90°   Ceiling: Unl
Heat Index: 105°   Visibility: 6mi
Dew Point: 79°   Wind: 6mph
Humidity: 70%   Direction: 240°WSW
Pressure: 29.88"   Gusts: NA
Location:  9.79°S, 54.91°W
Report Text: SBIH 221500Z 24005KT 9999 SCT018 FEW020TCU 32/26 Q1012
Loading
Personal Weather Stations






























Interactive Weather Map
Tropical Storm Tracking
New forecast layout! Learn more

10-Day Weather Forecast

Advertisements
Track Severe Weather on mobile